sensor_id;sensor_type;location;lat;lon;timestamp;P1;durP1;ratioP1;P2;durP2;ratioP2
73675;SDS011;61975;48.660;10.164;2022-11-20T00:00:40;6.37;;;3.03;;
73675;SDS011;61975;48.660;10.164;2022-11-20T00:03:06;7.13;;;2.80;;
73675;SDS011;61975;48.660;10.164;2022-11-20T00:05:32;7.43;;;2.87;;
73675;SDS011;61975;48.660;10.164;2022-11-20T00:07:58;6.82;;;2.85;;
73675;SDS011;61975;48.660;10.164;2022-11-20T00:10:23;5.60;;;2.60;;
73675;SDS011;61975;48.660;10.164;2022-11-20T00:12:48;7.07;;;2.63;;
73675;SDS011;61975;48.660;10.164;2022-11-20T00:15:14;6.87;;;3.00;;
73675;SDS011;61975;48.660;10.164;2022-11-20T00:17:39;6.47;;;2.77;;
73675;SDS011;61975;48.660;10.164;2022-11-20T00:20:05;6.68;;;2.50;;
73675;SDS011;61975;48.660;10.164;2022-11-20T00:22:30;6.55;;;2.67;;
73675;SDS011;61975;48.660;10.164;2022-11-20T00:24:56;5.90;;;2.67;;
73675;SDS011;61975;48.660;10.164;2022-11-20T00:27:22;6.45;;;2.70;;
73675;SDS011;61975;48.660;10.164;2022-11-20T00:29:48;7.47;;;3.13;;
73675;SDS011;61975;48.660;10.164;2022-11-20T00:32:13;6.13;;;2.72;;
73675;SDS011;61975;48.660;10.164;2022-11-20T00:34:39;8.23;;;3.20;;
73675;SDS011;61975;48.660;10.164;2022-11-20T00:37:04;6.03;;;2.77;;
73675;SDS011;61975;48.660;10.164;2022-11-20T00:39:29;6.73;;;3.17;;
73675;SDS011;61975;48.660;10.164;2022-11-20T00:41:55;5.53;;;2.50;;
73675;SDS011;61975;48.660;10.164;2022-11-20T00:44:20;5.97;;;2.80;;
73675;SDS011;61975;48.660;10.164;2022-11-20T00:46:45;6.43;;;2.63;;
73675;SDS011;61975;48.660;10.164;2022-11-20T00:49:11;6.72;;;2.47;;
73675;SDS011;61975;48.660;10.164;2022-11-20T00:51:36;5.77;;;2.27;;
73675;SDS011;61975;48.660;10.164;2022-11-20T00:54:02;6.60;;;2.57;;
73675;SDS011;61975;48.660;10.164;2022-11-20T00:56:27;7.00;;;2.70;;
73675;SDS011;61975;48.660;10.164;2022-11-20T00:58:52;5.82;;;2.58;;
73675;SDS011;61975;48.660;10.164;2022-11-20T01:01:22;5.43;;;2.20;;
73675;SDS011;61975;48.660;10.164;2022-11-20T01:03:49;5.88;;;2.42;;
73675;SDS011;61975;48.660;10.164;2022-11-20T01:06:21;5.17;;;2.30;;
73675;SDS011;61975;48.660;10.164;2022-11-20T01:08:52;5.93;;;2.50;;
73675;SDS011;61975;48.660;10.164;2022-11-20T01:11:20;5.22;;;2.30;;
73675;SDS011;61975;48.660;10.164;2022-11-20T01:13:48;5.35;;;2.25;;
73675;SDS011;61975;48.660;10.164;2022-11-20T01:16:16;7.05;;;2.60;;
73675;SDS011;61975;48.660;10.164;2022-11-20T01:18:51;4.97;;;1.87;;
73675;SDS011;61975;48.660;10.164;2022-11-20T01:21:18;6.07;;;2.40;;
73675;SDS011;61975;48.660;10.164;2022-11-20T01:23:44;5.57;;;2.33;;
73675;SDS011;61975;48.660;10.164;2022-11-20T01:26:11;4.80;;;2.20;;
73675;SDS011;61975;48.660;10.164;2022-11-20T01:28:39;5.73;;;2.43;;
73675;SDS011;61975;48.660;10.164;2022-11-20T01:33:38;5.65;;;1.90;;
73675;SDS011;61975;48.660;10.164;2022-11-20T01:36:05;7.35;;;2.25;;
73675;SDS011;61975;48.660;10.164;2022-11-20T01:38:31;4.45;;;2.00;;
73675;SDS011;61975;48.660;10.164;2022-11-20T01:40:56;5.30;;;2.40;;
73675;SDS011;61975;48.660;10.164;2022-11-20T01:43:22;5.23;;;2.20;;
73675;SDS011;61975;48.660;10.164;2022-11-20T01:48:15;6.77;;;2.30;;
73675;SDS011;61975;48.660;10.164;2022-11-20T01:50:43;5.45;;;2.17;;
73675;SDS011;61975;48.660;10.164;2022-11-20T01:53:10;6.07;;;2.35;;
73675;SDS011;61975;48.660;10.164;2022-11-20T01:55:43;5.13;;;2.30;;
73675;SDS011;61975;48.660;10.164;2022-11-20T01:58:12;6.55;;;2.35;;
73675;SDS011;61975;48.660;10.164;2022-11-20T02:00:38;5.10;;;2.20;;
73675;SDS011;61975;48.660;10.164;2022-11-20T02:03:05;5.23;;;2.17;;
73675;SDS011;61975;48.660;10.164;2022-11-20T02:05:45;5.85;;;2.30;;
73675;SDS011;61975;48.660;10.164;2022-11-20T02:08:11;5.45;;;2.10;;
73675;SDS011;61975;48.660;10.164;2022-11-20T02:10:37;6.57;;;2.45;;
73675;SDS011;61975;48.660;10.164;2022-11-20T02:13:03;5.07;;;2.20;;
73675;SDS011;61975;48.660;10.164;2022-11-20T02:15:47;5.05;;;2.13;;
73675;SDS011;61975;48.660;10.164;2022-11-20T02:18:14;6.32;;;2.30;;
73675;SDS011;61975;48.660;10.164;2022-11-20T02:20:42;6.00;;;2.30;;
73675;SDS011;61975;48.660;10.164;2022-11-20T02:23:16;6.18;;;2.08;;
73675;SDS011;61975;48.660;10.164;2022-11-20T02:25:56;4.90;;;2.10;;
73675;SDS011;61975;48.660;10.164;2022-11-20T02:28:25;5.28;;;2.20;;
73675;SDS011;61975;48.660;10.164;2022-11-20T02:30:50;5.33;;;2.10;;
73675;SDS011;61975;48.660;10.164;2022-11-20T02:33:15;5.63;;;2.13;;
73675;SDS011;61975;48.660;10.164;2022-11-20T02:35:42;6.53;;;2.50;;
73675;SDS011;61975;48.660;10.164;2022-11-20T02:38:08;9.15;;;3.47;;
73675;SDS011;61975;48.660;10.164;2022-11-20T02:40:34;4.93;;;2.03;;
73675;SDS011;61975;48.660;10.164;2022-11-20T02:43:00;7.60;;;2.73;;
73675;SDS011;61975;48.660;10.164;2022-11-20T02:45:25;14.17;;;5.13;;
73675;SDS011;61975;48.660;10.164;2022-11-20T02:47:51;14.48;;;5.60;;
73675;SDS011;61975;48.660;10.164;2022-11-20T02:50:17;20.03;;;7.30;;
73675;SDS011;61975;48.660;10.164;2022-11-20T02:52:43;11.13;;;4.75;;
73675;SDS011;61975;48.660;10.164;2022-11-20T02:55:08;8.82;;;3.70;;
73675;SDS011;61975;48.660;10.164;2022-11-20T02:57:34;5.50;;;2.97;;
73675;SDS011;61975;48.660;10.164;2022-11-20T02:59:59;7.37;;;3.73;;
73675;SDS011;61975;48.660;10.164;2022-11-20T03:02:25;6.25;;;2.53;;
73675;SDS011;61975;48.660;10.164;2022-11-20T03:04:50;5.43;;;2.10;;
73675;SDS011;61975;48.660;10.164;2022-11-20T03:07:16;6.60;;;3.03;;
73675;SDS011;61975;48.660;10.164;2022-11-20T03:09:41;4.77;;;2.00;;
73675;SDS011;61975;48.660;10.164;2022-11-20T03:12:07;5.73;;;1.53;;
73675;SDS011;61975;48.660;10.164;2022-11-20T03:14:32;6.70;;;2.10;;
73675;SDS011;61975;48.660;10.164;2022-11-20T03:16:57;5.53;;;1.93;;
73675;SDS011;61975;48.660;10.164;2022-11-20T03:19:23;4.03;;;1.77;;
73675;SDS011;61975;48.660;10.164;2022-11-20T03:21:49;4.73;;;1.70;;
73675;SDS011;61975;48.660;10.164;2022-11-20T03:24:14;5.53;;;1.90;;
73675;SDS011;61975;48.660;10.164;2022-11-20T03:26:40;5.77;;;1.90;;
73675;SDS011;61975;48.660;10.164;2022-11-20T03:29:06;4.93;;;2.08;;
73675;SDS011;61975;48.660;10.164;2022-11-20T03:31:32;5.77;;;1.77;;
73675;SDS011;61975;48.660;10.164;2022-11-20T03:33:59;5.32;;;1.98;;
73675;SDS011;61975;48.660;10.164;2022-11-20T03:36:25;4.78;;;1.65;;
73675;SDS011;61975;48.660;10.164;2022-11-20T03:38:53;5.63;;;1.92;;
73675;SDS011;61975;48.660;10.164;2022-11-20T03:41:25;4.93;;;1.88;;
73675;SDS011;61975;48.660;10.164;2022-11-20T03:43:57;5.03;;;1.77;;
73675;SDS011;61975;48.660;10.164;2022-11-20T03:46:24;4.95;;;1.75;;
73675;SDS011;61975;48.660;10.164;2022-11-20T03:48:50;4.23;;;1.80;;
73675;SDS011;61975;48.660;10.164;2022-11-20T03:51:20;5.28;;;2.15;;
73675;SDS011;61975;48.660;10.164;2022-11-20T03:53:46;4.53;;;1.70;;
73675;SDS011;61975;48.660;10.164;2022-11-20T03:56:13;4.32;;;1.60;;
73675;SDS011;61975;48.660;10.164;2022-11-20T03:58:40;4.05;;;1.73;;
73675;SDS011;61975;48.660;10.164;2022-11-20T04:01:10;3.85;;;1.83;;
73675;SDS011;61975;48.660;10.164;2022-11-20T04:03:38;5.13;;;2.13;;
73675;SDS011;61975;48.660;10.164;2022-11-20T04:06:06;6.05;;;2.20;;
73675;SDS011;61975;48.660;10.164;2022-11-20T04:08:36;3.97;;;1.67;;
73675;SDS011;61975;48.660;10.164;2022-11-20T04:11:11;4.97;;;2.17;;
73675;SDS011;61975;48.660;10.164;2022-11-20T04:13:37;5.53;;;2.00;;
73675;SDS011;61975;48.660;10.164;2022-11-20T04:16:04;4.78;;;2.15;;
73675;SDS011;61975;48.660;10.164;2022-11-20T04:18:30;4.50;;;1.95;;
73675;SDS011;61975;48.660;10.164;2022-11-20T04:20:58;5.90;;;2.20;;
73675;SDS011;61975;48.660;10.164;2022-11-20T04:23:24;4.72;;;2.10;;
73675;SDS011;61975;48.660;10.164;2022-11-20T04:25:50;4.18;;;1.55;;
73675;SDS011;61975;48.660;10.164;2022-11-20T04:28:15;4.40;;;1.80;;
73675;SDS011;61975;48.660;10.164;2022-11-20T04:30:41;5.50;;;2.27;;
73675;SDS011;61975;48.660;10.164;2022-11-20T04:33:06;7.03;;;2.07;;
73675;SDS011;61975;48.660;10.164;2022-11-20T04:35:35;4.80;;;2.20;;
73675;SDS011;61975;48.660;10.164;2022-11-20T04:38:01;5.07;;;2.00;;
73675;SDS011;61975;48.660;10.164;2022-11-20T04:40:27;5.03;;;1.90;;
73675;SDS011;61975;48.660;10.164;2022-11-20T04:42:52;4.47;;;1.75;;
73675;SDS011;61975;48.660;10.164;2022-11-20T04:45:19;5.97;;;1.88;;
73675;SDS011;61975;48.660;10.164;2022-11-20T04:47:44;4.40;;;1.83;;
73675;SDS011;61975;48.660;10.164;2022-11-20T04:50:09;4.30;;;1.80;;
73675;SDS011;61975;48.660;10.164;2022-11-20T04:52:35;4.13;;;1.80;;
73675;SDS011;61975;48.660;10.164;2022-11-20T04:55:00;4.25;;;1.90;;
73675;SDS011;61975;48.660;10.164;2022-11-20T04:57:25;5.10;;;1.97;;
73675;SDS011;61975;48.660;10.164;2022-11-20T04:59:51;5.07;;;1.90;;
73675;SDS011;61975;48.660;10.164;2022-11-20T05:02:16;4.57;;;1.90;;
73675;SDS011;61975;48.660;10.164;2022-11-20T05:04:42;4.10;;;1.60;;
73675;SDS011;61975;48.660;10.164;2022-11-20T05:07:07;4.88;;;2.10;;
73675;SDS011;61975;48.660;10.164;2022-11-20T05:09:32;4.68;;;1.80;;
73675;SDS011;61975;48.660;10.164;2022-11-20T05:11:58;5.27;;;2.10;;
73675;SDS011;61975;48.660;10.164;2022-11-20T05:14:23;4.57;;;1.60;;
73675;SDS011;61975;48.660;10.164;2022-11-20T05:16:49;3.97;;;1.83;;
73675;SDS011;61975;48.660;10.164;2022-11-20T05:19:14;3.90;;;1.50;;
73675;SDS011;61975;48.660;10.164;2022-11-20T05:21:40;4.30;;;1.48;;
73675;SDS011;61975;48.660;10.164;2022-11-20T05:24:05;4.40;;;1.67;;
73675;SDS011;61975;48.660;10.164;2022-11-20T05:26:31;4.75;;;1.90;;
73675;SDS011;61975;48.660;10.164;2022-11-20T05:28:57;4.60;;;1.83;;
73675;SDS011;61975;48.660;10.164;2022-11-20T05:31:24;4.77;;;2.00;;
73675;SDS011;61975;48.660;10.164;2022-11-20T05:33:49;4.07;;;1.70;;
73675;SDS011;61975;48.660;10.164;2022-11-20T05:36:15;4.57;;;1.93;;
73675;SDS011;61975;48.660;10.164;2022-11-20T05:38:41;5.07;;;2.00;;
73675;SDS011;61975;48.660;10.164;2022-11-20T05:41:11;4.85;;;1.80;;
73675;SDS011;61975;48.660;10.164;2022-11-20T05:43:38;4.87;;;1.60;;
73675;SDS011;61975;48.660;10.164;2022-11-20T05:46:06;4.55;;;1.65;;
73675;SDS011;61975;48.660;10.164;2022-11-20T05:48:32;4.70;;;1.85;;
73675;SDS011;61975;48.660;10.164;2022-11-20T05:50:59;5.80;;;1.77;;
73675;SDS011;61975;48.660;10.164;2022-11-20T05:53:26;4.72;;;1.85;;
73675;SDS011;61975;48.660;10.164;2022-11-20T05:55:56;4.53;;;1.60;;
73675;SDS011;61975;48.660;10.164;2022-11-20T05:58:32;5.70;;;1.90;;
73675;SDS011;61975;48.660;10.164;2022-11-20T06:01:08;3.92;;;1.80;;
73675;SDS011;61975;48.660;10.164;2022-11-20T06:03:39;4.50;;;1.70;;
73675;SDS011;61975;48.660;10.164;2022-11-20T06:06:05;5.35;;;1.95;;
73675;SDS011;61975;48.660;10.164;2022-11-20T06:08:31;5.23;;;2.03;;
73675;SDS011;61975;48.660;10.164;2022-11-20T06:10:57;5.85;;;1.90;;
73675;SDS011;61975;48.660;10.164;2022-11-20T06:13:23;7.07;;;2.03;;
73675;SDS011;61975;48.660;10.164;2022-11-20T06:15:49;5.80;;;2.20;;
73675;SDS011;61975;48.660;10.164;2022-11-20T06:18:15;7.82;;;2.50;;
73675;SDS011;61975;48.660;10.164;2022-11-20T06:20:41;5.30;;;1.73;;
73675;SDS011;61975;48.660;10.164;2022-11-20T06:23:06;5.43;;;2.60;;
73675;SDS011;61975;48.660;10.164;2022-11-20T06:25:32;6.13;;;2.10;;
73675;SDS011;61975;48.660;10.164;2022-11-20T06:27:57;4.87;;;1.93;;
73675;SDS011;61975;48.660;10.164;2022-11-20T06:30:23;5.53;;;2.03;;
73675;SDS011;61975;48.660;10.164;2022-11-20T06:32:48;4.97;;;2.13;;
73675;SDS011;61975;48.660;10.164;2022-11-20T06:35:13;4.35;;;2.15;;
73675;SDS011;61975;48.660;10.164;2022-11-20T06:37:39;6.32;;;2.08;;
73675;SDS011;61975;48.660;10.164;2022-11-20T06:40:04;4.77;;;2.13;;
73675;SDS011;61975;48.660;10.164;2022-11-20T06:42:30;5.53;;;1.92;;
73675;SDS011;61975;48.660;10.164;2022-11-20T06:44:57;5.63;;;2.40;;
73675;SDS011;61975;48.660;10.164;2022-11-20T06:47:22;5.43;;;1.92;;
73675;SDS011;61975;48.660;10.164;2022-11-20T06:49:47;4.17;;;1.67;;
73675;SDS011;61975;48.660;10.164;2022-11-20T06:52:13;6.43;;;2.83;;
73675;SDS011;61975;48.660;10.164;2022-11-20T06:54:38;7.60;;;2.07;;
73675;SDS011;61975;48.660;10.164;2022-11-20T06:57:03;4.70;;;2.10;;
73675;SDS011;61975;48.660;10.164;2022-11-20T06:59:29;4.60;;;1.80;;
73675;SDS011;61975;48.660;10.164;2022-11-20T07:01:54;8.23;;;2.77;;
73675;SDS011;61975;48.660;10.164;2022-11-20T07:04:19;7.53;;;3.22;;
73675;SDS011;61975;48.660;10.164;2022-11-20T07:06:45;6.28;;;2.50;;
73675;SDS011;61975;48.660;10.164;2022-11-20T07:09:10;4.43;;;1.77;;
73675;SDS011;61975;48.660;10.164;2022-11-20T07:11:35;5.70;;;1.70;;
73675;SDS011;61975;48.660;10.164;2022-11-20T07:14:01;7.53;;;2.10;;
73675;SDS011;61975;48.660;10.164;2022-11-20T07:16:26;8.07;;;2.07;;
73675;SDS011;61975;48.660;10.164;2022-11-20T07:18:52;5.80;;;1.90;;
73675;SDS011;61975;48.660;10.164;2022-11-20T07:21:17;6.80;;;1.90;;
73675;SDS011;61975;48.660;10.164;2022-11-20T07:23:43;4.70;;;1.87;;
73675;SDS011;61975;48.660;10.164;2022-11-20T07:26:09;6.97;;;2.27;;
73675;SDS011;61975;48.660;10.164;2022-11-20T07:28:35;6.10;;;2.00;;
73675;SDS011;61975;48.660;10.164;2022-11-20T07:31:01;6.57;;;2.17;;
73675;SDS011;61975;48.660;10.164;2022-11-20T07:33:27;6.00;;;2.30;;
73675;SDS011;61975;48.660;10.164;2022-11-20T07:35:53;5.85;;;1.67;;
73675;SDS011;61975;48.660;10.164;2022-11-20T07:38:18;5.50;;;1.90;;
73675;SDS011;61975;48.660;10.164;2022-11-20T07:40:44;4.70;;;1.90;;
73675;SDS011;61975;48.660;10.164;2022-11-20T07:43:09;5.27;;;1.73;;
73675;SDS011;61975;48.660;10.164;2022-11-20T07:45:34;7.37;;;1.50;;
73675;SDS011;61975;48.660;10.164;2022-11-20T07:48:00;7.80;;;2.20;;
73675;SDS011;61975;48.660;10.164;2022-11-20T07:50:26;4.37;;;1.80;;
73675;SDS011;61975;48.660;10.164;2022-11-20T07:52:51;3.90;;;1.60;;
73675;SDS011;61975;48.660;10.164;2022-11-20T07:55:17;4.93;;;1.90;;
73675;SDS011;61975;48.660;10.164;2022-11-20T07:57:42;4.50;;;2.00;;
73675;SDS011;61975;48.660;10.164;2022-11-20T08:00:08;4.27;;;1.93;;
73675;SDS011;61975;48.660;10.164;2022-11-20T08:02:38;4.80;;;1.98;;
73675;SDS011;61975;48.660;10.164;2022-11-20T08:05:07;4.88;;;2.15;;
73675;SDS011;61975;48.660;10.164;2022-11-20T08:07:37;6.15;;;1.80;;
73675;SDS011;61975;48.660;10.164;2022-11-20T08:10:04;5.18;;;2.00;;
73675;SDS011;61975;48.660;10.164;2022-11-20T08:12:30;4.63;;;1.83;;
73675;SDS011;61975;48.660;10.164;2022-11-20T08:15:14;4.70;;;1.85;;
73675;SDS011;61975;48.660;10.164;2022-11-20T08:17:39;5.75;;;2.58;;
73675;SDS011;61975;48.660;10.164;2022-11-20T08:20:05;6.45;;;2.40;;
73675;SDS011;61975;48.660;10.164;2022-11-20T08:22:30;6.87;;;2.20;;
73675;SDS011;61975;48.660;10.164;2022-11-20T08:24:56;7.55;;;2.65;;
73675;SDS011;61975;48.660;10.164;2022-11-20T08:27:22;4.35;;;2.10;;
73675;SDS011;61975;48.660;10.164;2022-11-20T08:29:48;7.93;;;2.53;;
73675;SDS011;61975;48.660;10.164;2022-11-20T08:32:13;5.97;;;2.40;;
73675;SDS011;61975;48.660;10.164;2022-11-20T08:34:38;6.90;;;2.40;;
73675;SDS011;61975;48.660;10.164;2022-11-20T08:37:04;7.10;;;2.27;;
73675;SDS011;61975;48.660;10.164;2022-11-20T08:39:29;4.40;;;2.00;;
73675;SDS011;61975;48.660;10.164;2022-11-20T08:41:54;7.43;;;3.20;;
73675;SDS011;61975;48.660;10.164;2022-11-20T08:44:20;5.72;;;2.15;;
73675;SDS011;61975;48.660;10.164;2022-11-20T08:46:45;4.93;;;2.00;;
73675;SDS011;61975;48.660;10.164;2022-11-20T08:49:12;6.00;;;2.75;;
73675;SDS011;61975;48.660;10.164;2022-11-20T08:51:39;6.78;;;3.20;;
73675;SDS011;61975;48.660;10.164;2022-11-20T08:54:05;6.68;;;3.25;;
73675;SDS011;61975;48.660;10.164;2022-11-20T08:56:31;5.13;;;2.55;;
73675;SDS011;61975;48.660;10.164;2022-11-20T08:58:56;5.72;;;2.67;;
73675;SDS011;61975;48.660;10.164;2022-11-20T09:01:24;6.97;;;2.97;;
73675;SDS011;61975;48.660;10.164;2022-11-20T09:03:50;6.33;;;2.47;;
73675;SDS011;61975;48.660;10.164;2022-11-20T09:06:16;5.45;;;1.90;;
73675;SDS011;61975;48.660;10.164;2022-11-20T09:08:42;5.40;;;2.20;;
73675;SDS011;61975;48.660;10.164;2022-11-20T09:11:08;6.45;;;2.88;;
73675;SDS011;61975;48.660;10.164;2022-11-20T09:13:34;6.87;;;3.57;;
73675;SDS011;61975;48.660;10.164;2022-11-20T09:16:02;6.47;;;2.75;;
73675;SDS011;61975;48.660;10.164;2022-11-20T09:18:30;6.35;;;1.90;;
73675;SDS011;61975;48.660;10.164;2022-11-20T09:20:58;5.22;;;2.03;;
73675;SDS011;61975;48.660;10.164;2022-11-20T09:23:24;5.78;;;2.17;;
73675;SDS011;61975;48.660;10.164;2022-11-20T09:25:50;4.90;;;2.15;;
73675;SDS011;61975;48.660;10.164;2022-11-20T09:28:15;5.28;;;2.20;;
73675;SDS011;61975;48.660;10.164;2022-11-20T09:30:43;5.63;;;2.00;;
73675;SDS011;61975;48.660;10.164;2022-11-20T09:33:08;5.05;;;1.70;;
73675;SDS011;61975;48.660;10.164;2022-11-20T09:35:34;4.27;;;1.80;;
73675;SDS011;61975;48.660;10.164;2022-11-20T09:38:03;6.10;;;2.90;;
73675;SDS011;61975;48.660;10.164;2022-11-20T09:40:30;6.85;;;2.95;;
73675;SDS011;61975;48.660;10.164;2022-11-20T09:51:25;5.15;;;1.70;;
73675;SDS011;61975;48.660;10.164;2022-11-20T09:56:33;5.00;;;1.95;;
73675;SDS011;61975;48.660;10.164;2022-11-20T09:59:04;3.83;;;1.47;;
73675;SDS011;61975;48.660;10.164;2022-11-20T10:01:35;5.72;;;1.63;;
73675;SDS011;61975;48.660;10.164;2022-11-20T10:04:13;4.65;;;1.40;;
73675;SDS011;61975;48.660;10.164;2022-11-20T10:06:50;4.80;;;1.60;;
73675;SDS011;61975;48.660;10.164;2022-11-20T10:09:35;4.13;;;1.58;;
73675;SDS011;61975;48.660;10.164;2022-11-20T10:30:49;3.85;;;1.20;;
73675;SDS011;61975;48.660;10.164;2022-11-20T10:33:33;5.50;;;1.85;;
73675;SDS011;61975;48.660;10.164;2022-11-20T10:38:44;3.80;;;1.42;;
73675;SDS011;61975;48.660;10.164;2022-11-20T10:41:19;3.65;;;1.45;;
73675;SDS011;61975;48.660;10.164;2022-11-20T10:43:58;3.75;;;1.40;;
73675;SDS011;61975;48.660;10.164;2022-11-20T10:46:33;3.83;;;1.30;;
73675;SDS011;61975;48.660;10.164;2022-11-20T10:49:12;3.25;;;1.05;;
73675;SDS011;61975;48.660;10.164;2022-11-20T10:51:47;4.72;;;1.60;;
73675;SDS011;61975;48.660;10.164;2022-11-20T10:57:25;4.47;;;1.58;;
73675;SDS011;61975;48.660;10.164;2022-11-20T11:00:06;3.80;;;1.40;;
73675;SDS011;61975;48.660;10.164;2022-11-20T11:02:39;3.80;;;1.40;;
73675;SDS011;61975;48.660;10.164;2022-11-20T11:08:04;3.28;;;1.15;;
73675;SDS011;61975;48.660;10.164;2022-11-20T11:13:21;3.88;;;1.40;;
73675;SDS011;61975;48.660;10.164;2022-11-20T11:15:49;6.25;;;2.03;;
73675;SDS011;61975;48.660;10.164;2022-11-20T11:20:52;6.93;;;3.13;;
73675;SDS011;61975;48.660;10.164;2022-11-20T11:23:36;4.78;;;2.17;;
73675;SDS011;61975;48.660;10.164;2022-11-20T11:26:05;3.83;;;1.48;;
73675;SDS011;61975;48.660;10.164;2022-11-20T11:28:52;3.08;;;1.10;;
73675;SDS011;61975;48.660;10.164;2022-11-20T11:34:14;4.68;;;1.40;;
73675;SDS011;61975;48.660;10.164;2022-11-20T11:36:40;4.03;;;1.50;;
73675;SDS011;61975;48.660;10.164;2022-11-20T11:39:09;3.17;;;1.30;;
73675;SDS011;61975;48.660;10.164;2022-11-20T11:41:39;3.95;;;1.67;;
73675;SDS011;61975;48.660;10.164;2022-11-20T11:44:23;4.30;;;1.60;;
73675;SDS011;61975;48.660;10.164;2022-11-20T11:47:12;6.38;;;2.50;;
73675;SDS011;61975;48.660;10.164;2022-11-20T11:49:47;4.78;;;1.90;;
73675;SDS011;61975;48.660;10.164;2022-11-20T11:52:15;3.77;;;1.63;;
73675;SDS011;61975;48.660;10.164;2022-11-20T12:05:30;2.63;;;0.70;;
73675;SDS011;61975;48.660;10.164;2022-11-20T12:08:27;2.28;;;0.80;;
73675;SDS011;61975;48.660;10.164;2022-11-20T12:11:04;2.28;;;0.73;;
73675;SDS011;61975;48.660;10.164;2022-11-20T12:15:59;5.00;;;2.42;;
73675;SDS011;61975;48.660;10.164;2022-11-20T12:18:26;4.97;;;2.55;;
73675;SDS011;61975;48.660;10.164;2022-11-20T12:21:11;9.32;;;4.65;;
73675;SDS011;61975;48.660;10.164;2022-11-20T12:58:38;4.10;;;1.67;;
73675;SDS011;61975;48.660;10.164;2022-11-20T13:01:16;3.25;;;1.13;;
73675;SDS011;61975;48.660;10.164;2022-11-20T13:04:15;4.10;;;1.40;;
73675;SDS011;61975;48.660;10.164;2022-11-20T13:06:44;5.30;;;2.40;;
73675;SDS011;61975;48.660;10.164;2022-11-20T13:09:11;4.03;;;2.00;;
73675;SDS011;61975;48.660;10.164;2022-11-20T13:14:34;3.00;;;1.20;;
73675;SDS011;61975;48.660;10.164;2022-11-20T13:17:10;4.13;;;1.88;;
73675;SDS011;61975;48.660;10.164;2022-11-20T13:19:39;3.88;;;1.50;;
73675;SDS011;61975;48.660;10.164;2022-11-20T13:22:07;3.30;;;1.15;;
73675;SDS011;61975;48.660;10.164;2022-11-20T13:24:33;5.03;;;1.63;;
73675;SDS011;61975;48.660;10.164;2022-11-20T13:27:02;4.18;;;1.20;;
73675;SDS011;61975;48.660;10.164;2022-11-20T13:29:37;2.80;;;0.80;;
73675;SDS011;61975;48.660;10.164;2022-11-20T13:34:38;2.72;;;0.90;;
73675;SDS011;61975;48.660;10.164;2022-11-20T13:37:04;3.10;;;1.00;;
73675;SDS011;61975;48.660;10.164;2022-11-20T13:39:33;3.53;;;1.30;;
73675;SDS011;61975;48.660;10.164;2022-11-20T13:42:01;6.57;;;2.00;;
73675;SDS011;61975;48.660;10.164;2022-11-20T13:44:42;4.50;;;1.75;;
73675;SDS011;61975;48.660;10.164;2022-11-20T13:50:13;5.70;;;2.08;;
73675;SDS011;61975;48.660;10.164;2022-11-20T13:52:43;4.50;;;1.80;;
73675;SDS011;61975;48.660;10.164;2022-11-20T14:01:35;3.13;;;1.20;;
73675;SDS011;61975;48.660;10.164;2022-11-20T14:03:44;3.60;;;1.60;;
73675;SDS011;61975;48.660;10.164;2022-11-20T14:06:13;3.63;;;1.30;;
73675;SDS011;61975;48.660;10.164;2022-11-20T14:08:49;3.38;;;1.30;;
73675;SDS011;61975;48.660;10.164;2022-11-20T14:11:16;3.97;;;1.92;;
73675;SDS011;61975;48.660;10.164;2022-11-20T14:16:50;4.07;;;1.70;;
73675;SDS011;61975;48.660;10.164;2022-11-20T14:21:49;5.18;;;1.65;;
73675;SDS011;61975;48.660;10.164;2022-11-20T14:24:23;19.25;;;6.32;;
73675;SDS011;61975;48.660;10.164;2022-11-20T14:26:49;4.22;;;1.60;;
73675;SDS011;61975;48.660;10.164;2022-11-20T14:29:19;2.70;;;0.80;;
73675;SDS011;61975;48.660;10.164;2022-11-20T14:31:47;2.95;;;0.80;;
73675;SDS011;61975;48.660;10.164;2022-11-20T14:34:21;4.47;;;1.30;;
73675;SDS011;61975;48.660;10.164;2022-11-20T14:36:53;5.10;;;2.25;;
73675;SDS011;61975;48.660;10.164;2022-11-20T14:39:31;2.55;;;0.73;;
73675;SDS011;61975;48.660;10.164;2022-11-20T14:41:59;2.47;;;0.93;;
73675;SDS011;61975;48.660;10.164;2022-11-20T14:44:29;2.13;;;0.60;;
73675;SDS011;61975;48.660;10.164;2022-11-20T14:46:58;4.28;;;1.65;;
73675;SDS011;61975;48.660;10.164;2022-11-20T14:49:25;2.85;;;0.90;;
73675;SDS011;61975;48.660;10.164;2022-11-20T14:51:58;3.38;;;1.20;;
73675;SDS011;61975;48.660;10.164;2022-11-20T14:54:25;3.25;;;1.00;;
73675;SDS011;61975;48.660;10.164;2022-11-20T14:56:58;3.58;;;1.17;;
73675;SDS011;61975;48.660;10.164;2022-11-20T14:59:27;4.55;;;1.00;;
73675;SDS011;61975;48.660;10.164;2022-11-20T15:02:08;3.50;;;1.20;;
73675;SDS011;61975;48.660;10.164;2022-11-20T15:04:50;2.40;;;0.70;;
73675;SDS011;61975;48.660;10.164;2022-11-20T15:07:26;2.75;;;1.00;;
73675;SDS011;61975;48.660;10.164;2022-11-20T15:10:06;2.58;;;0.63;;
73675;SDS011;61975;48.660;10.164;2022-11-20T15:12:35;2.70;;;1.00;;
73675;SDS011;61975;48.660;10.164;2022-11-20T15:15:03;3.55;;;0.80;;
73675;SDS011;61975;48.660;10.164;2022-11-20T15:17:30;3.47;;;0.80;;
73675;SDS011;61975;48.660;10.164;2022-11-20T15:19:57;2.30;;;0.73;;
73675;SDS011;61975;48.660;10.164;2022-11-20T15:22:24;2.97;;;0.70;;
73675;SDS011;61975;48.660;10.164;2022-11-20T15:24:50;3.00;;;0.70;;
73675;SDS011;61975;48.660;10.164;2022-11-20T15:27:15;2.87;;;0.80;;
73675;SDS011;61975;48.660;10.164;2022-11-20T15:29:41;3.45;;;0.75;;
73675;SDS011;61975;48.660;10.164;2022-11-20T15:32:07;3.23;;;0.90;;
73675;SDS011;61975;48.660;10.164;2022-11-20T15:34:33;2.22;;;0.70;;
73675;SDS011;61975;48.660;10.164;2022-11-20T15:36:58;2.77;;;0.73;;
73675;SDS011;61975;48.660;10.164;2022-11-20T15:39:24;3.15;;;0.65;;
73675;SDS011;61975;48.660;10.164;2022-11-20T15:41:49;3.15;;;0.75;;
73675;SDS011;61975;48.660;10.164;2022-11-20T15:44:14;2.80;;;0.70;;
73675;SDS011;61975;48.660;10.164;2022-11-20T15:46:40;2.40;;;0.60;;
73675;SDS011;61975;48.660;10.164;2022-11-20T15:49:10;3.75;;;1.20;;
73675;SDS011;61975;48.660;10.164;2022-11-20T15:51:38;3.10;;;0.83;;
73675;SDS011;61975;48.660;10.164;2022-11-20T15:54:10;3.50;;;1.13;;
73675;SDS011;61975;48.660;10.164;2022-11-20T15:56:37;3.58;;;0.80;;
73675;SDS011;61975;48.660;10.164;2022-11-20T15:59:02;3.90;;;0.90;;
73675;SDS011;61975;48.660;10.164;2022-11-20T16:01:28;3.20;;;1.50;;
73675;SDS011;61975;48.660;10.164;2022-11-20T16:03:53;2.97;;;0.80;;
73675;SDS011;61975;48.660;10.164;2022-11-20T16:06:19;2.80;;;0.90;;
73675;SDS011;61975;48.660;10.164;2022-11-20T16:08:44;3.80;;;1.20;;
73675;SDS011;61975;48.660;10.164;2022-11-20T16:11:13;4.07;;;1.48;;
73675;SDS011;61975;48.660;10.164;2022-11-20T16:13:40;2.80;;;1.00;;
73675;SDS011;61975;48.660;10.164;2022-11-20T16:16:36;3.83;;;1.38;;
73675;SDS011;61975;48.660;10.164;2022-11-20T16:19:04;3.65;;;1.27;;
73675;SDS011;61975;48.660;10.164;2022-11-20T16:21:30;3.65;;;1.50;;
73675;SDS011;61975;48.660;10.164;2022-11-20T16:23:59;3.72;;;1.50;;
73675;SDS011;61975;48.660;10.164;2022-11-20T16:26:26;5.00;;;1.43;;
73675;SDS011;61975;48.660;10.164;2022-11-20T16:28:52;3.33;;;1.25;;
73675;SDS011;61975;48.660;10.164;2022-11-20T16:31:18;6.10;;;2.30;;
73675;SDS011;61975;48.660;10.164;2022-11-20T16:34:17;7.82;;;2.80;;
73675;SDS011;61975;48.660;10.164;2022-11-20T16:36:36;5.43;;;2.42;;
73675;SDS011;61975;48.660;10.164;2022-11-20T16:39:04;4.18;;;1.88;;